createdAt,value
2022-12-05T00:02:08.872Z,101101.69
2022-12-05T00:04:37.176Z,101100.97
2022-12-05T00:07:05.541Z,101113.50
2022-12-05T00:09:33.753Z,101106.63
2022-12-05T00:12:02.017Z,100993.75
2022-12-05T00:14:30.243Z,101121.78
2022-12-05T00:16:58.522Z,101126.25
2022-12-05T00:19:28.179Z,101117.38
2022-12-05T00:21:57.826Z,101121.00
2022-12-05T00:24:26.363Z,101122.69
2022-12-05T00:26:54.738Z,101115.97
2022-12-05T00:29:23.089Z,101122.31
2022-12-05T00:31:51.352Z,101133.69
2022-12-05T00:34:19.718Z,101134.47
2022-12-05T00:36:49.413Z,101130.94
2022-12-05T00:39:17.754Z,101130.06
2022-12-05T00:41:45.950Z,101124.09
2022-12-05T00:44:14.773Z,101128.50
2022-12-05T00:46:43.218Z,101133.56
2022-12-05T00:49:12.934Z,101090.59
2022-12-05T00:51:43.034Z,101137.66
2022-12-05T00:54:14.383Z,101133.22
2022-12-05T00:56:43.224Z,101131.22
2022-12-05T00:59:15.932Z,101114.28
2022-12-05T01:01:45.916Z,101145.72
2022-12-05T01:04:16.645Z,101140.75
2022-12-05T01:06:46.548Z,101150.69
2022-12-05T01:09:18.789Z,101149.28
2022-12-05T01:11:47.465Z,101151.91
2022-12-05T01:14:17.637Z,101145.78
2022-12-05T01:16:48.057Z,101151.28
2022-12-05T01:19:19.222Z,101101.53
2022-12-05T01:21:48.242Z,101145.94
2022-12-05T01:24:19.164Z,101141.47
2022-12-05T01:26:48.395Z,101144.03
2022-12-05T01:29:18.961Z,101154.41
2022-12-05T01:31:47.472Z,101155.25
2022-12-05T01:34:17.405Z,101154.53
2022-12-05T01:36:46.147Z,101152.91
2022-12-05T01:39:14.883Z,101152.22
2022-12-05T01:41:48.109Z,101009.66
2022-12-05T01:44:53.604Z,101163.38
2022-12-05T01:47:24.108Z,101168.00
2022-12-05T01:49:52.417Z,101165.38
2022-12-05T01:52:25.016Z,101163.38
2022-12-05T01:54:58.046Z,101163.44
2022-12-05T01:57:27.993Z,101165.38
2022-12-05T02:00:01.465Z,101176.75
2022-12-05T02:02:41.659Z,101149.66
2022-12-05T02:05:16.441Z,101169.06
2022-12-05T02:07:45.514Z,101162.94
2022-12-05T02:10:13.923Z,101172.53
2022-12-05T02:12:45.205Z,101175.03
2022-12-05T02:15:33.700Z,101176.59
2022-12-05T02:18:14.398Z,101179.31
2022-12-05T02:20:55.725Z,101177.72
2022-12-05T02:24:02.112Z,101175.19
2022-12-05T02:26:53.347Z,101179.66
2022-12-05T02:29:59.070Z,101178.03
2022-12-05T02:32:39.432Z,101182.44
2022-12-05T02:35:17.375Z,101150.28
2022-12-05T02:37:55.469Z,101185.47
2022-12-05T02:40:31.722Z,101182.84
2022-12-05T02:43:03.290Z,101170.13
2022-12-05T02:45:37.034Z,101161.63
2022-12-05T02:48:07.172Z,101185.47
2022-12-05T02:50:39.002Z,101190.53
2022-12-05T02:53:12.271Z,101183.50
2022-12-05T02:55:42.831Z,101011.03
2022-12-05T02:58:17.578Z,101037.81
2022-12-05T03:00:50.519Z,101181.63
2022-12-05T03:03:22.408Z,101190.50
2022-12-05T03:05:58.332Z,101182.84
2022-12-05T03:08:31.039Z,101193.47
2022-12-05T03:11:02.748Z,101204.00
2022-12-05T03:13:35.185Z,101193.25
2022-12-05T03:16:09.438Z,101197.47
2022-12-05T03:18:40.871Z,101199.03
2022-12-05T03:21:20.499Z,101198.91
2022-12-05T03:23:52.376Z,101197.31
2022-12-05T03:26:37.471Z,101204.50
2022-12-05T03:29:28.096Z,101208.28
2022-12-05T03:32:07.143Z,101204.72
2022-12-05T03:34:51.113Z,101207.41
2022-12-05T03:37:27.399Z,101206.69
2022-12-05T03:40:05.731Z,101213.00
2022-12-05T03:42:37.519Z,101204.25
2022-12-05T03:45:09.644Z,101212.75
2022-12-05T03:47:46.622Z,101216.09
2022-12-05T03:50:21.313Z,101217.06
2022-12-05T03:53:18.585Z,101212.09
2022-12-05T03:55:46.695Z,101207.22
2022-12-05T03:58:21.896Z,101213.19
2022-12-05T04:00:54.628Z,101211.50
2022-12-05T04:03:39.161Z,101215.88
2022-12-05T04:06:13.631Z,101227.38
2022-12-05T04:08:48.559Z,101221.47
2022-12-05T04:11:20.528Z,101236.06
2022-12-05T04:13:51.965Z,101243.88
2022-12-05T04:16:42.410Z,101231.78
2022-12-05T04:19:18.756Z,101235.75
2022-12-05T04:21:50.908Z,101235.03
2022-12-05T04:24:41.007Z,101240.16
2022-12-05T04:27:24.271Z,101238.50
2022-12-05T04:30:02.639Z,101241.91
2022-12-05T04:32:38.675Z,101242.84
2022-12-05T04:35:15.419Z,101235.81
2022-12-05T04:37:48.960Z,101246.25
2022-12-05T04:40:23.751Z,101243.56
2022-12-05T04:42:54.761Z,101254.91
2022-12-05T04:45:25.828Z,101241.13
2022-12-05T04:48:00.245Z,101243.16
2022-12-05T04:50:33.421Z,101242.34
2022-12-05T04:53:04.355Z,101253.72
2022-12-05T04:55:36.931Z,101254.59
2022-12-05T04:58:10.189Z,101253.06
2022-12-05T05:00:47.268Z,101256.53
2022-12-05T05:03:21.862Z,101258.19
2022-12-05T05:05:55.606Z,101255.56
2022-12-05T05:08:25.763Z,101259.97
2022-12-05T05:11:05.152Z,101257.44
2022-12-05T05:13:33.514Z,101260.09
2022-12-05T05:16:01.737Z,101263.56
2022-12-05T05:18:30.119Z,101271.56
2022-12-05T05:20:59.732Z,101276.03
2022-12-05T05:23:27.984Z,101275.22
2022-12-05T05:25:57.313Z,101276.09
2022-12-05T05:28:25.560Z,101281.50
2022-12-05T05:30:53.837Z,101283.19
2022-12-05T05:33:22.202Z,101275.56
2022-12-05T05:35:50.449Z,101277.34
2022-12-05T05:38:20.096Z,101286.94
2022-12-05T05:40:48.408Z,101295.78
2022-12-05T05:43:16.754Z,101297.63
2022-12-05T05:45:45.029Z,101293.09
2022-12-05T05:48:13.344Z,101292.97
2022-12-05T05:50:41.651Z,101299.03
2022-12-05T05:53:12.684Z,101267.31
2022-12-05T05:55:42.558Z,101287.16
2022-12-05T05:58:11.143Z,101299.44
2022-12-05T06:00:39.443Z,101312.28
2022-12-05T06:03:07.928Z,101311.38
2022-12-05T06:05:36.326Z,101312.22
2022-12-05T06:08:05.350Z,101315.03
2022-12-05T06:10:33.696Z,101325.72
2022-12-05T06:13:03.503Z,101337.06
2022-12-05T06:15:32.770Z,101332.72
2022-12-05T06:18:01.080Z,101344.03
2022-12-05T06:20:29.288Z,101343.28
2022-12-05T06:22:57.597Z,101339.00
2022-12-05T06:25:25.907Z,101343.13
2022-12-05T06:27:54.257Z,101340.72
2022-12-05T06:30:23.957Z,101339.75
2022-12-05T06:32:52.223Z,101352.16
2022-12-05T06:35:20.517Z,101353.19
2022-12-05T06:37:48.786Z,101361.00
2022-12-05T06:40:17.107Z,101355.91
2022-12-05T06:42:45.320Z,101355.81
2022-12-05T06:45:13.634Z,101357.41
2022-12-05T06:47:43.265Z,101359.22
2022-12-05T06:50:12.625Z,101367.38
2022-12-05T06:52:40.901Z,101370.06
2022-12-05T06:55:10.015Z,101370.00
2022-12-05T06:57:38.341Z,101370.88
2022-12-05T07:00:25.207Z,101376.94
2022-12-05T07:02:55.088Z,101366.69
2022-12-05T07:05:23.253Z,101373.56
2022-12-05T07:07:51.650Z,101376.94
2022-12-05T07:10:20.212Z,101373.44
2022-12-05T07:12:48.551Z,101377.78
2022-12-05T07:15:16.978Z,101375.91
2022-12-05T07:17:45.360Z,101377.50
2022-12-05T07:20:17.869Z,101382.50
2022-12-05T07:22:46.779Z,101379.88
2022-12-05T07:25:15.123Z,101388.69
2022-12-05T07:27:43.507Z,101379.84
2022-12-05T07:30:12.388Z,101383.13
2022-12-05T07:32:40.691Z,101383.00
2022-12-05T07:35:09.660Z,101383.72
2022-12-05T07:37:39.420Z,101394.00
2022-12-05T07:40:09.048Z,101393.88
2022-12-05T07:42:37.492Z,101396.56
2022-12-05T07:45:06.384Z,101398.97
2022-12-05T07:47:34.901Z,101393.94
2022-12-05T07:50:03.187Z,101399.34
2022-12-05T07:52:31.480Z,101414.34
2022-12-05T07:55:01.286Z,101418.03
2022-12-05T07:57:31.140Z,101422.72
2022-12-05T07:59:59.596Z,101420.88
2022-12-05T08:02:28.097Z,101418.97
2022-12-05T08:04:56.543Z,101424.00
2022-12-05T08:07:24.953Z,101418.63
2022-12-05T08:09:53.202Z,101427.00
2022-12-05T08:12:22.938Z,101427.59
2022-12-05T08:14:51.212Z,101427.38
2022-12-05T08:17:19.692Z,101408.44
2022-12-05T08:19:47.967Z,101426.03
2022-12-05T08:22:16.264Z,101432.56
2022-12-05T08:24:44.701Z,101424.66
2022-12-05T08:27:12.979Z,101431.88
2022-12-05T08:29:42.802Z,101431.81
2022-12-05T08:32:11.050Z,101433.38
2022-12-05T08:34:40.312Z,101435.59
2022-12-05T08:37:08.612Z,101435.28
2022-12-05T08:39:38.881Z,101434.75
2022-12-05T08:42:07.443Z,101454.13
2022-12-05T08:44:35.704Z,101461.63
2022-12-05T08:47:05.452Z,101456.78
2022-12-05T08:49:33.887Z,101458.56
2022-12-05T08:52:02.180Z,101468.13
2022-12-05T08:54:30.419Z,101469.66
2022-12-05T08:56:59.496Z,101461.22
2022-12-05T08:59:27.782Z,101469.75
2022-12-05T09:01:57.135Z,101470.91
2022-12-05T09:04:26.873Z,101475.53
2022-12-05T09:06:55.192Z,101480.34
2022-12-05T09:09:23.524Z,101483.50
2022-12-05T09:11:52.223Z,101476.06
2022-12-05T09:14:20.488Z,101472.13
2022-12-05T09:16:49.134Z,101467.19
2022-12-05T09:19:20.818Z,101443.00
2022-12-05T09:21:50.745Z,101463.78
2022-12-05T09:24:19.131Z,101464.19
2022-12-05T09:26:47.866Z,101432.13
2022-12-05T09:29:17.728Z,101442.69
2022-12-05T09:31:48.136Z,101457.09
2022-12-05T09:34:18.638Z,101453.88
2022-12-05T09:36:55.706Z,101460.09
2022-12-05T09:39:31.333Z,101467.03
2022-12-05T09:42:39.522Z,101462.13
2022-12-05T09:45:17.838Z,101470.56
2022-12-05T09:47:58.866Z,101464.03
2022-12-05T09:50:29.410Z,101435.25
2022-12-05T09:53:06.794Z,101458.44
2022-12-05T09:55:47.378Z,101461.47
2022-12-05T09:58:23.627Z,101454.56
2022-12-05T10:00:55.914Z,101448.59
2022-12-05T10:03:30.664Z,101449.06
2022-12-05T10:06:11.029Z,101455.66
2022-12-05T10:09:01.096Z,101433.13
2022-12-05T10:11:38.489Z,101439.34
2022-12-05T10:14:12.955Z,101446.41
2022-12-05T10:16:48.312Z,101451.03
2022-12-05T10:19:21.467Z,101455.72
2022-12-05T10:21:56.798Z,101460.34
2022-12-05T10:24:30.948Z,101456.34
2022-12-05T10:27:03.809Z,101449.75
2022-12-05T10:29:36.857Z,101441.28
2022-12-05T10:32:12.108Z,101441.84
2022-12-05T10:34:42.198Z,101434.06
2022-12-05T10:37:15.101Z,101431.50
2022-12-05T10:39:43.466Z,101436.41
2022-12-05T10:42:16.769Z,101432.50
2022-12-05T10:44:45.614Z,101430.69
2022-12-05T10:47:14.176Z,101429.97
2022-12-05T10:49:43.411Z,101422.72
2022-12-05T10:52:15.393Z,101422.53
2022-12-05T10:54:48.538Z,101422.53
2022-12-05T10:57:26.628Z,101422.44
2022-12-05T10:59:56.672Z,101418.06
2022-12-05T11:02:28.804Z,101380.00
2022-12-05T11:04:58.721Z,101403.31
2022-12-05T11:07:32.747Z,101401.50
2022-12-05T11:10:03.142Z,101395.22
2022-12-05T11:12:38.867Z,101363.66
2022-12-05T11:15:24.429Z,101385.75
2022-12-05T11:17:53.821Z,101381.91
2022-12-05T11:20:42.216Z,101379.91
2022-12-05T11:23:26.042Z,101367.97
2022-12-05T11:25:55.059Z,101369.44
2022-12-05T11:28:42.208Z,101370.81
2022-12-05T11:31:23.969Z,101374.03
2022-12-05T11:34:18.380Z,101375.09
2022-12-05T11:36:54.241Z,101367.38
2022-12-05T11:39:22.557Z,101368.03
2022-12-05T11:42:04.228Z,101337.00
2022-12-05T11:44:52.966Z,101355.00
2022-12-05T11:47:34.165Z,101355.88
2022-12-05T11:50:16.223Z,101352.03
2022-12-05T11:52:56.547Z,101350.94
2022-12-05T11:55:28.091Z,101347.34
2022-12-05T11:58:22.076Z,101340.91
2022-12-05T12:01:04.788Z,101334.50
2022-12-05T12:04:01.465Z,101337.06
2022-12-05T12:06:34.996Z,101337.16
2022-12-05T12:09:24.651Z,101333.66
2022-12-05T12:12:01.743Z,101332.59
2022-12-05T12:14:40.605Z,101325.22
2022-12-05T12:17:19.945Z,101324.16
2022-12-05T12:20:18.235Z,101330.22
2022-12-05T12:23:00.168Z,101327.44
2022-12-05T12:25:41.055Z,101322.84
2022-12-05T12:28:27.620Z,101321.53
2022-12-05T12:31:07.832Z,101314.31
2022-12-05T12:33:47.845Z,101310.53
2022-12-05T12:36:20.229Z,101317.31
2022-12-05T12:39:12.481Z,101317.09
2022-12-05T12:41:57.194Z,101308.25
2022-12-05T12:44:46.568Z,101308.88
2022-12-05T12:47:24.840Z,101300.66
2022-12-05T12:50:03.943Z,101303.22
2022-12-05T12:52:45.257Z,101301.66
2022-12-05T12:55:23.238Z,101301.28
2022-12-05T12:58:04.721Z,101302.88
2022-12-05T13:00:45.235Z,101303.72
2022-12-05T13:03:19.016Z,101307.97
2022-12-05T13:05:51.484Z,101298.53
2022-12-05T13:08:26.263Z,101292.88
2022-12-05T13:10:55.412Z,101291.78
2022-12-05T13:13:30.649Z,101282.69
2022-12-05T13:16:02.003Z,101282.59
2022-12-05T13:18:30.356Z,101279.53
2022-12-05T13:21:02.582Z,101280.16
2022-12-05T13:23:34.112Z,101266.81
2022-12-05T13:26:08.944Z,101268.75
2022-12-05T13:28:42.418Z,101263.44
2022-12-05T13:31:14.231Z,101265.47
2022-12-05T13:33:46.726Z,101254.97
2022-12-05T13:36:36.627Z,101252.75
2022-12-05T13:39:24.906Z,101254.47
2022-12-05T13:42:14.627Z,101232.44
2022-12-05T13:44:46.028Z,101217.16
2022-12-05T13:47:29.973Z,101245.63
2022-12-05T13:50:04.032Z,101251.19
2022-12-05T13:52:41.589Z,101247.69
2022-12-05T13:55:23.880Z,101246.81
2022-12-05T13:57:54.414Z,101247.44
2022-12-05T14:00:34.064Z,101246.34
2022-12-05T14:03:04.789Z,101244.41
2022-12-05T14:05:47.953Z,101244.28
2022-12-05T14:08:55.407Z,101254.09
2022-12-05T14:11:24.831Z,101246.09
2022-12-05T14:13:53.670Z,101241.25
2022-12-05T14:16:50.328Z,101253.50
2022-12-05T14:19:46.803Z,101259.44
2022-12-05T14:22:51.883Z,101254.25
2022-12-05T14:25:35.587Z,101259.81
2022-12-05T14:28:17.037Z,101262.34
2022-12-05T14:30:56.509Z,101252.78
2022-12-05T14:33:25.086Z,101260.53
2022-12-05T14:35:54.553Z,101263.19
2022-12-05T14:38:28.966Z,101254.50
2022-12-05T14:41:12.530Z,101248.44
2022-12-05T14:43:42.702Z,101250.59
2022-12-05T14:46:19.614Z,101249.63
2022-12-05T14:48:49.364Z,101244.78
2022-12-05T14:51:46.729Z,101240.53
2022-12-05T14:54:18.915Z,101229.50
2022-12-05T14:56:52.749Z,101235.94
2022-12-05T14:59:27.353Z,101230.84
2022-12-05T15:01:58.395Z,101236.56
2022-12-05T15:04:36.904Z,101240.19
2022-12-05T15:07:10.444Z,101212.28
2022-12-05T15:09:52.423Z,101235.31
2022-12-05T15:12:27.247Z,101195.34
2022-12-05T15:15:19.942Z,101237.50
2022-12-05T15:17:51.730Z,101232.63
2022-12-05T15:20:35.502Z,101233.59
2022-12-05T15:23:39.219Z,101229.50
2022-12-05T15:26:45.470Z,101225.50
2022-12-05T15:29:11.288Z,101197.97
2022-12-05T15:31:45.784Z,101218.81
2022-12-05T15:34:19.251Z,101222.69
2022-12-05T15:36:55.636Z,101213.00
2022-12-05T15:39:25.933Z,101222.31
2022-12-05T15:41:55.499Z,101227.00
2022-12-05T15:44:35.958Z,101225.56
2022-12-05T15:47:06.351Z,101230.50
2022-12-05T15:49:37.664Z,101231.81
2022-12-05T15:52:27.336Z,101222.09
2022-12-05T15:54:55.991Z,101229.88
2022-12-05T15:57:29.828Z,101231.66
2022-12-05T16:00:04.040Z,101231.59
2022-12-05T16:02:45.355Z,101231.38
2022-12-05T16:05:22.523Z,101232.91
2022-12-05T16:07:54.161Z,101236.34
2022-12-05T16:10:29.136Z,101241.34
2022-12-05T16:13:05.484Z,101240.22
2022-12-05T16:15:35.775Z,101230.66
2022-12-05T16:18:06.194Z,101249.16
2022-12-05T16:20:36.779Z,101244.41
2022-12-05T16:23:07.563Z,101258.13
2022-12-05T16:25:37.647Z,101263.84
2022-12-05T16:28:18.419Z,101272.44
2022-12-05T16:31:00.429Z,101276.72
2022-12-05T16:33:30.652Z,101279.03
2022-12-05T16:36:09.220Z,101287.50
2022-12-05T16:38:38.622Z,101291.22
2022-12-05T16:41:09.396Z,101289.91
2022-12-05T16:43:47.619Z,101284.16
2022-12-05T16:46:45.471Z,101283.19
2022-12-05T16:49:24.361Z,101282.94
2022-12-05T16:52:00.708Z,101283.44
2022-12-05T16:54:29.052Z,101287.38
2022-12-05T16:56:57.701Z,101288.50
2022-12-05T16:59:32.427Z,101231.16
2022-12-05T17:02:03.736Z,101294.59
2022-12-05T17:04:32.598Z,101295.94
2022-12-05T17:07:01.021Z,101290.84
2022-12-05T17:09:30.453Z,101293.50
2022-12-05T17:12:03.851Z,101294.44
2022-12-05T17:14:32.153Z,101292.75
2022-12-05T17:17:02.821Z,101291.91
2022-12-05T17:19:31.196Z,101297.28
2022-12-05T17:21:59.488Z,101294.66
2022-12-05T17:24:28.566Z,101295.50
2022-12-05T17:26:56.926Z,101293.59
2022-12-05T17:29:25.376Z,101294.22
2022-12-05T17:31:55.476Z,101294.03
2022-12-05T17:34:25.217Z,101299.03
2022-12-05T17:36:53.518Z,101291.38
2022-12-05T17:39:27.876Z,101294.03
2022-12-05T17:41:56.829Z,101296.78
2022-12-05T17:44:26.215Z,101299.44
2022-12-05T17:46:54.688Z,101304.84
2022-12-05T17:49:25.201Z,101304.84
2022-12-05T17:52:24.542Z,101302.19
2022-12-05T17:54:43.079Z,101296.16
2022-12-05T17:57:11.500Z,101291.81
2022-12-05T17:59:39.711Z,101288.81
2022-12-05T18:02:08.159Z,101285.59
2022-12-05T18:04:40.050Z,101281.84
2022-12-05T18:07:09.853Z,101289.38
2022-12-05T18:09:39.174Z,101284.56
2022-12-05T18:12:07.649Z,101283.78
2022-12-05T18:14:36.215Z,101293.00
2022-12-05T18:17:04.698Z,101300.59
2022-12-05T18:19:33.054Z,101302.69
2022-12-05T18:22:02.694Z,101310.28
2022-12-05T18:24:31.110Z,101313.81
2022-12-05T18:27:00.880Z,101310.16
2022-12-05T18:29:29.237Z,101313.03
2022-12-05T18:31:57.653Z,101310.25
2022-12-05T18:34:26.063Z,101312.31
2022-12-05T18:36:56.189Z,101315.47
2022-12-05T18:39:25.950Z,101313.75
2022-12-05T18:41:54.461Z,101328.69
2022-12-05T18:44:22.687Z,101319.69
2022-12-05T18:46:51.094Z,101176.38
2022-12-05T18:49:19.419Z,101323.41
2022-12-05T18:51:48.928Z,101328.69
2022-12-05T18:54:18.112Z,101332.47
2022-12-05T18:56:50.401Z,101329.44
2022-12-05T18:59:20.300Z,101314.56
2022-12-05T19:01:48.672Z,101320.72
2022-12-05T19:04:18.992Z,101319.09
2022-12-05T19:06:50.030Z,101304.41
2022-12-05T19:09:20.716Z,101322.94
2022-12-05T19:11:52.329Z,101321.94
2022-12-05T19:14:21.071Z,101315.13
2022-12-05T19:16:54.944Z,101323.34
2022-12-05T19:19:27.439Z,101327.94
2022-12-05T19:21:56.683Z,101316.78
2022-12-05T19:24:25.192Z,101324.19
2022-12-05T19:26:54.984Z,101321.16
2022-12-05T19:29:23.485Z,101327.56
2022-12-05T19:31:52.838Z,101325.78
2022-12-05T19:34:21.383Z,101325.78
2022-12-05T19:36:49.566Z,101332.38
2022-12-05T19:39:20.272Z,101328.03
2022-12-05T19:41:49.436Z,101336.66
2022-12-05T19:44:19.399Z,101330.69
2022-12-05T19:46:49.359Z,101337.03
2022-12-05T19:49:18.519Z,101333.44
2022-12-05T19:51:48.829Z,101330.19
2022-12-05T19:54:19.658Z,101310.09
2022-12-05T19:56:48.040Z,101322.72
2022-12-05T19:59:18.565Z,101318.44
2022-12-05T20:01:46.904Z,101321.34
2022-12-05T20:04:17.282Z,101323.81
2022-12-05T20:06:48.638Z,101319.47
2022-12-05T20:09:18.815Z,101324.06
2022-12-05T20:11:55.238Z,101328.81
2022-12-05T20:14:26.810Z,101325.56
2022-12-05T20:16:55.428Z,101321.31
2022-12-05T20:19:24.115Z,101313.66
2022-12-05T20:21:52.616Z,101308.97
2022-12-05T20:24:20.939Z,101317.03
2022-12-05T20:26:49.212Z,101306.81
2022-12-05T20:29:17.513Z,101320.78
2022-12-05T20:31:47.408Z,101322.88
2022-12-05T20:34:15.981Z,101327.59
2022-12-05T20:36:44.425Z,101326.03
2022-12-05T20:39:15.818Z,101324.41
2022-12-05T20:41:44.411Z,101325.50
2022-12-05T20:44:15.599Z,101161.19
2022-12-05T20:46:44.028Z,101325.41
2022-12-05T20:49:15.011Z,101324.00
2022-12-05T20:51:44.762Z,101322.28
2022-12-05T20:54:14.095Z,101321.66
2022-12-05T20:56:42.978Z,101315.84
2022-12-05T20:59:13.519Z,101305.53
2022-12-05T21:01:42.049Z,101304.00
2022-12-05T21:04:10.697Z,101308.25
2022-12-05T21:06:42.940Z,101294.06
2022-12-05T21:09:15.973Z,101310.22
2022-12-05T21:11:44.420Z,101295.81
2022-12-05T21:14:12.905Z,101300.78
2022-12-05T21:16:41.565Z,101300.56
2022-12-05T21:19:10.164Z,101305.22
2022-12-05T21:21:40.140Z,101289.50
2022-12-05T21:24:09.029Z,101313.63
2022-12-05T21:26:37.759Z,101306.03
2022-12-05T21:29:08.347Z,101300.81
2022-12-05T21:31:38.270Z,101308.34
2022-12-05T21:34:08.773Z,101256.38
2022-12-05T21:36:38.150Z,101310.97
2022-12-05T21:39:08.504Z,101299.72
2022-12-05T21:41:37.406Z,101304.06
2022-12-05T21:44:06.250Z,101305.84
2022-12-05T21:46:35.052Z,101305.84
2022-12-05T21:49:03.453Z,101298.72
2022-12-05T21:51:31.799Z,101160.41
2022-12-05T21:54:00.072Z,101295.00
2022-12-05T21:56:30.027Z,101275.84
2022-12-05T21:58:58.381Z,101298.41
2022-12-05T22:01:28.552Z,101308.25
2022-12-05T22:03:59.552Z,101301.75
2022-12-05T22:06:28.098Z,101298.03
2022-12-05T22:08:57.474Z,101303.22
2022-12-05T22:11:25.867Z,101295.91
2022-12-05T22:13:55.599Z,101296.34
2022-12-05T22:16:29.187Z,101290.84
2022-12-05T22:19:00.642Z,101289.38
2022-12-05T22:21:29.540Z,101296.44
2022-12-05T22:23:58.087Z,101295.50
2022-12-05T22:26:27.863Z,101301.50
2022-12-05T22:28:57.861Z,101301.34
2022-12-05T22:31:26.457Z,101295.13
2022-12-05T22:33:54.883Z,101298.69
2022-12-05T22:36:24.339Z,101285.91
2022-12-05T22:38:55.132Z,101287.53
2022-12-05T22:41:25.384Z,101276.50
2022-12-05T22:43:56.352Z,101261.88
2022-12-05T22:46:27.685Z,101291.56
2022-12-05T22:48:56.554Z,101294.19
2022-12-05T22:51:25.225Z,101291.25
2022-12-05T22:53:54.263Z,101288.53
2022-12-05T22:56:24.260Z,101142.72
2022-12-05T22:58:55.149Z,101291.94
2022-12-05T23:01:30.770Z,101283.47
2022-12-05T23:04:03.791Z,101284.34
2022-12-05T23:06:33.513Z,101288.75
2022-12-05T23:09:02.736Z,101283.56
2022-12-05T23:11:31.097Z,101281.94
2022-12-05T23:14:02.157Z,101279.59
2022-12-05T23:16:34.218Z,101248.91
2022-12-05T23:19:04.414Z,101275.19
2022-12-05T23:21:35.427Z,101239.22
2022-12-05T23:24:05.552Z,101271.69
2022-12-05T23:26:36.128Z,101265.63
2022-12-05T23:29:04.799Z,101267.41
2022-12-05T23:31:34.490Z,101240.75
2022-12-05T23:34:04.013Z,101254.31
2022-12-05T23:36:33.541Z,101250.13
2022-12-05T23:39:02.416Z,101250.97
2022-12-05T23:41:30.857Z,101262.38
2022-12-05T23:43:59.562Z,101251.81
2022-12-05T23:46:29.277Z,101221.16
2022-12-05T23:48:59.130Z,101247.66
2022-12-05T23:51:28.958Z,101245.88
2022-12-05T23:53:59.078Z,101244.25
2022-12-05T23:56:29.971Z,101214.41
2022-12-05T23:58:58.343Z,101235.41
